Latest Coastal Weather Observations for Norfolk Island

IDN60701

Issued at 10:11 pm EST Sunday 9 August 2020 (issued every 10 minutes, with the page automatically refreshed every 10 minutes)

About coastal observations | Map of coastal stations | Coastal observations for NSW | Marine services | Other Formats
Station Details ID: 200288 Name: NORFOLK ISLAND AERO Lat: -29.04 Lon: 167.94 Height: 111.73 m
Data from the previous 72 hours. | See also: Recent months at Norfolk Island

Observations are collected in the New South Wales time zone (Eastern Standard Time) which includes daylight savings in the summer period. Therefore 'Rain since 9am' totals and other values are based on the New South Wales time zone, which may differ from local time.

Date/Time
EST
Wind Sea
Height
m
Swell Vis
km
Cloud Weather Temp
°C
Press
hPa
Rain since
9am
mm
Dir  Spd
kts
Gust
kts
Height
m
Period
s
Dir
09/10:00pm NNE 12 20 - - - - 5 Partly cloudy - 16.2 1014.6 4.2
09/09:58pm NNE 12 20 - - - - 6 Cloudy - 16.2 1014.6 4.2
09/09:44pm NNE 14 20 - - - - 10 Cloudy - 16.2 1014.7 3.8
09/09:30pm NNE 14 21 - - - - 4 Cloudy - 16.1 1014.8 3.8
09/09:04pm NE 15 25 - - - - 4 Cloudy - 16.0 1014.6 3.6
09/09:00pm NE 14 25 - - - - 4 Cloudy - 16.0 1014.8 3.6
09/08:49pm NE 15 22 - - - - 6 Partly cloudy - 16.0 1014.9 3.6
09/08:40pm NNE 15 21 - - - - 10 Partly cloudy - 16.0 1015.0 3.6
09/08:30pm NE 17 27 - - - - 6 Partly cloudy - 15.9 1015.0 3.6
09/08:23pm NE 15 25 - - - - 4 Partly cloudy - 15.8 1014.9 3.6
09/08:00pm NE 14 19 - - - - 2 Cloudy Rain 15.6 1015.2 3.0
09/07:57pm NE 15 21 - - - - 3 Partly cloudy - 15.6 1015.2 2.6
09/07:30pm NE 16 22 - - - - 4 Partly cloudy - 16.0 1015.3 0.4
09/07:26pm NE 16 22 - - - - 6 Cloudy - 16.2 1015.2 0.4
09/07:00pm NE 16 20 - - - - 10 Partly cloudy - 16.2 1015.0 0.4
09/06:33pm NE 16 26 - - - - 10 Partly cloudy - 15.9 1015.1 0.4
09/06:30pm NE 17 24 - - - - 10 Partly cloudy - 15.9 1015.1 0.4
09/06:00pm NE 18 23 - - - - 10 Partly cloudy - 15.6 1015.3 0.4
09/05:30pm NE 16 21 - - - - 10 Partly cloudy - 15.6 1015.5 0.4
09/05:00pm NE 15 20 - - - - 10 Cloudy Drizzle 15.3 1015.5 0.4
09/04:30pm ENE 12 17 - - - - 10 Partly cloudy - 14.8 1015.7 0.4
09/04:00pm ENE 9 15 - - - - 10 Cloudy - 14.8 1015.6 0.4
09/03:30pm ENE 10 13 - - - - 10 Partly cloudy - 14.6 1015.8 0.4
09/03:00pm ENE 9 12 - - - - 10 Partly cloudy - 14.7 1015.8 0.4
09/02:30pm ENE 9 12 - - - - 10 Cloudy - 14.4 1016.0 0.4
09/02:00pm E 9 11 - - - - 10 Cloudy - 14.3 1015.9 0.4
09/01:30pm NE 9 12 - - - - 10 Partly cloudy - 14.1 1016.3 0.4
09/01:18pm ENE 8 10 - - - - 10 Partly cloudy - 14.0 1016.5 0.4
09/01:00pm NE 9 11 - - - - 4 Partly cloudy - 13.7 1016.8 0.4
09/12:30pm ENE 7 11 - - - - 4 Partly cloudy - 14.7 1016.9 0.2
09/12:19pm NE 9 14 - - - - 6 Partly cloudy - 15.6 1016.8 0.2
09/12:00pm ENE 9 14 - - - - 10 Partly cloudy - 16.8 1016.5 0.2
09/11:30am NE 9 13 - - - - 10 Partly cloudy - 16.9 1016.6 0.2
09/11:00am ENE 9 12 - - - - 10 Cloudy - 16.8 1017.3 0.2
09/10:30am ENE 9 13 - - - - 10 Cloudy - 16.6 1017.8 0.2
09/10:00am ENE 9 14 - - - - 10 Partly cloudy - 16.8 1017.9 0.2
09/09:30am NE 11 15 - - - - 10 Partly cloudy - 17.2 1017.6 0.0
09/09:00am ENE 9 12 - - - - 10 Cloudy - 16.9 1018.3 0.0
09/08:30am ENE 10 13 - - - - 10 Partly cloudy - 16.7 1018.4 0.0
09/08:00am ENE 8 10 - - - - 10 Mostly cloudy - 16.4 1018.7 0.2
09/07:30am ENE 7 8 - - - - 10 - - 16.0 1018.3 0.2
09/07:00am ENE 4 5 - - - - 10 Cloudy - 15.3 1018.5 0.2
09/06:30am ENE 5 6 - - - - 10 Cloudy - 13.8 1018.3 0.2
09/06:00am CALM 0 0 - - - - 10 Partly cloudy - 14.2 1018.6 0.2
09/05:30am ENE 3 4 - - - - 10 Partly cloudy - 13.8 1017.9 0.2
09/05:00am ENE 2 3 - - - - 10 Cloudy - 13.3 1017.4 0.2
09/04:30am ENE 4 4 - - - - 10 Partly cloudy - 13.7 1017.2 0.2
09/04:00am ENE 2 4 - - - - 10 Cloudy - 13.0 1016.7 0.2
09/03:30am ENE 4 5 - - - - 10 Cloudy - 13.1 1015.7 0.2
09/03:00am ENE 5 6 - - - - 10 Partly cloudy - 12.3 1015.8 0.2
09/02:30am E 4 4 - - - - 10 Partly cloudy - 12.9 1016.1 0.2
09/02:00am E 4 5 - - - - 10 Cloudy Rain 13.8 1016.6 0.2
09/01:30am E 3 4 - - - - 10 Cloudy - 13.3 1016.5 0.2
09/01:00am CALM 0 0 - - - - 10 Cloudy - 13.2 1016.8 0.2
09/12:30am CALM 0 0 - - - - 10 Cloudy - 13.4 1017.0 0.2
09/12:00am CALM 0 0 - - - - 10 Partly cloudy - 13.6 1017.2 0.2
 
Date/Time
EST
Wind Sea
Height
m
Swell Vis
km
Cloud Weather Temp
°C
Press
hPa
Rain since
9am
mm
Dir  Spd
kts
Gust
kts
Height
m
Period
s
Dir
08/11:30pm CALM 0 0 - - - - 10 Cloudy - 13.7 1017.2 0.2
08/11:00pm CALM 0 0 - - - - 10 Mostly cloudy - 13.3 1017.1 0.2
08/10:30pm CALM 0 0 - - - - 10 Partly cloudy - 14.4 1017.4 0.2
08/10:00pm CALM 0 0 - - - - 10 - - 13.6 1017.3 0.2
08/09:30pm SSE 3 4 - - - - 10 Partly cloudy - 12.7 1017.1 0.2
08/09:00pm CALM 0 0 - - - - 10 Partly cloudy - 13.5 1017.7 0.2
08/08:30pm CALM 0 0 - - - - 10 Partly cloudy - 14.0 1017.6 0.2
08/08:00pm SSE 3 5 - - - - 10 Cloudy - 14.4 1017.4 0.2
08/07:30pm SSE 5 7 - - - - 10 Partly cloudy - 13.7 1017.3 0.2
08/07:00pm S 4 6 - - - - 10 - - 14.4 1017.6 0.2
08/06:30pm SSE 6 7 - - - - 10 - - 14.4 1017.4 0.2
08/06:00pm SSE 7 9 - - - - 10 Partly cloudy - 15.1 1017.5 0.2
08/05:30pm SSE 7 9 - - - - 10 Partly cloudy - 15.3 1017.1 0.2
08/05:00pm SSE 5 7 - - - - 10 Mostly clear - 14.8 1017.2 0.2
08/04:30pm S 6 8 - - - - 10 Partly cloudy - 15.4 1017.2 0.2
08/04:00pm SSW 7 9 - - - - 10 Partly cloudy - 16.1 1017.3 0.2
08/03:30pm S 9 13 - - - - 10 Partly cloudy - 16.7 1017.1 0.2
08/03:00pm SSW 9 12 - - - - 10 Partly cloudy - 17.2 1017.2 0.2
08/02:30pm SSW 8 11 - - - - 10 Partly cloudy - 17.5 1017.2 0.2
08/02:00pm SSW 10 13 - - - - 10 Partly cloudy - 17.4 1016.8 0.2
08/01:30pm SSW 10 13 - - - - 10 - - 17.3 1016.6 0.2
08/01:00pm SSW 11 16 - - - - 10 Partly cloudy - 17.6 1016.6 0.2
08/12:30pm SSW 11 15 - - - - 10 Partly cloudy - 17.8 1017.1 0.2
08/12:00pm SW 11 17 - - - - 10 Cloudy - 17.5 1017.4 0.2
08/11:30am SSW 9 16 - - - - 10 Partly cloudy - 18.0 1017.6 0.2
08/11:00am SW 12 18 - - - - 10 Partly cloudy - 17.7 1017.8 0.0
08/10:30am SSW 11 17 - - - - 10 Partly cloudy - 17.3 1017.9 0.0
08/10:00am SSW 11 17 - - - - 10 Partly cloudy - 18.0 1018.3 0.0
08/09:30am SW 12 17 - - - - 10 Partly cloudy - 17.4 1018.4 0.0
08/09:00am SSW 9 13 - - - - 10 Partly cloudy - 16.7 1017.9 0.0
08/08:30am SSW 9 13 - - - - 10 Partly cloudy - 16.8 1018.3 0.0
08/08:00am SW 11 16 - - - - 10 Cloudy Drizzle 16.6 1018.7 0.0
08/07:30am SSW 8 14 - - - - 10 Cloudy - 16.0 1018.6 0.0
08/07:00am SW 11 16 - - - - 8 Partly cloudy - 15.5 1018.3 0.0
08/06:56am WSW 8 14 - - - - 8 Partly cloudy - 15.6 1018.3 0.0
08/06:30am WSW 10 15 - - - - 7 Partly cloudy - 15.2 1017.6 0.0
08/06:24am WSW 11 16 - - - - 6 Partly cloudy - 15.2 1017.7 0.0
08/06:00am SW 11 16 - - - - 10 Partly cloudy - 16.0 1017.6 0.0
08/05:30am SW 9 15 - - - - 10 Partly cloudy - 15.9 1017.0 0.0
08/05:00am SW 13 20 - - - - 10 Cloudy - 15.9 1017.1 0.0
08/04:30am SW 10 15 - - - - 10 Partly cloudy - 15.9 1016.5 0.0
08/04:00am WSW 11 15 - - - - 10 Partly cloudy - 16.5 1016.7 0.0
08/03:30am W 10 14 - - - - 10 Partly cloudy - 16.1 1016.8 0.0
08/03:00am W 9 12 - - - - 10 Partly cloudy - 15.9 1016.3 0.0
08/02:30am W 11 14 - - - - 10 Partly cloudy - 16.2 1017.1 0.0
08/02:00am WSW 9 14 - - - - 10 Cloudy - 15.9 1017.0 0.0
08/01:30am WSW 9 14 - - - - 10 Partly cloudy - 15.7 1017.0 0.0
08/01:00am WSW 8 11 - - - - 10 Partly cloudy - 15.5 1017.4 0.0
08/12:30am WSW 9 13 - - - - 10 - - 15.4 1017.6 0.0
08/12:00am W 9 14 - - - - 10 - - 15.7 1017.6 0.0
 
Date/Time
EST
Wind Sea
Height
m
Swell Vis
km
Cloud Weather Temp
°C
Press
hPa
Rain since
9am
mm
Dir  Spd
kts
Gust
kts
Height
m
Period
s
Dir
07/11:30pm WSW 8 10 - - - - 10 - - 15.9 1017.6 0.0
07/11:00pm WSW 9 15 - - - - 10 Cloudy - 16.1 1018.1 0.0
07/10:30pm WSW 9 12 - - - - 10 Partly cloudy - 16.1 1018.1 0.0
07/10:00pm WSW 9 13 - - - - 10 Partly cloudy - 16.1 1018.3 0.0
07/09:30pm WSW 9 15 - - - - 10 - - 16.1 1018.3 0.0
07/09:00pm WSW 10 14 - - - - 10 - - 16.2 1018.6 0.0
07/08:30pm WSW 10 16 - - - - 10 Partly cloudy - 16.1 1018.4 0.0
07/08:00pm WSW 8 10 - - - - 10 Mostly clear - 16.2 1018.1 0.0
07/07:30pm WSW 10 14 - - - - 10 Partly cloudy - 16.4 1018.2 0.0
07/07:00pm WSW 9 12 - - - - 10 Partly cloudy - 16.0 1017.8 0.0
07/06:30pm SW 9 13 - - - - 10 Partly cloudy - 16.2 1017.7 0.0
07/06:00pm WSW 8 12 - - - - 10 - - 15.8 1017.7 0.0
07/05:30pm SW 9 14 - - - - 10 Partly cloudy - 16.1 1017.5 0.0
07/05:00pm SW 9 14 - - - - 10 Mostly clear - 16.4 1017.6 0.0
07/04:30pm SW 13 18 - - - - 10 - - 16.4 1017.3 0.0
07/04:00pm SW 12 20 - - - - 10 Partly cloudy - 16.5 1017.2 0.0
07/03:30pm SW 13 18 - - - - 10 - - 17.2 1017.1 0.0
07/03:00pm WSW 12 17 - - - - 10 Partly cloudy - 17.6 1017.2 0.0
07/02:30pm SW 13 17 - - - - 10 Partly cloudy - 18.1 1017.2 0.0
07/02:00pm WSW 12 17 - - - - 10 Cloudy - 18.4 1017.3 0.0
07/01:30pm WSW 12 21 - - - - 10 Partly cloudy - 18.9 1017.3 0.0
07/01:00pm WSW 14 18 - - - - 10 - - 18.7 1017.3 0.0
07/12:30pm WSW 14 19 - - - - 10 - - 19.0 1017.3 0.0
07/12:00pm SW 14 20 - - - - 10 - - 19.2 1017.3 0.0
07/11:30am SW 15 20 - - - - 10 - - 19.1 1017.5 0.0
07/11:00am SW 13 18 - - - - 10 - - 19.1 1017.7 0.0
07/10:30am WSW 13 18 - - - - 10 - - 18.8 1018.4 0.0
07/10:00am WSW 13 19 - - - - 10 Partly cloudy - 19.0 1018.7 0.0
07/09:30am WSW 12 18 - - - - 10 Partly cloudy - 18.3 1018.8 0.0
07/09:00am W 15 19 - - - - 10 Partly cloudy - 18.6 1018.9 0.0
07/08:30am WNW 14 19 - - - - 10 Partly cloudy - 18.9 1018.9 0.0
07/08:00am WNW 14 17 - - - - 10 Cloudy - 18.4 1018.9 0.0
07/07:30am WNW 13 19 - - - - 10 Partly cloudy - 17.9 1018.8 0.0
07/07:00am WNW 13 18 - - - - 10 Partly cloudy - 17.6 1018.8 0.0
07/06:30am WNW 11 15 - - - - 10 Partly cloudy - 17.1 1018.6 0.0
07/06:00am WNW 13 17 - - - - 10 Partly cloudy - 17.0 1018.5 0.0
07/05:30am WNW 10 15 - - - - 10 Partly cloudy - 16.7 1018.2 0.0
07/05:00am WNW 11 15 - - - - 10 Partly cloudy - 16.6 1017.8 0.0
07/04:30am WNW 10 15 - - - - 10 Cloudy - 16.7 1017.7 0.0
07/04:08am WNW 10 16 - - - - 10 Cloudy - 16.5 1017.7 0.0
07/04:00am WNW 10 16 - - - - 10 Partly cloudy - 16.5 1017.6 0.0
07/03:37am WNW 9 12 - - - - 10 Partly cloudy - 16.5 1017.6 0.0
07/03:33am WNW 9 13 - - - - 10 Partly cloudy - 16.4 1017.6 0.0
07/03:30am WNW 9 14 - - - - 10 Partly cloudy - 16.5 1017.6 0.0
07/03:00am WNW 8 11 - - - - 10 Partly cloudy - 16.2 1017.3 0.0
07/02:30am WNW 8 12 - - - - 10 Partly cloudy - 16.1 1017.4 0.0
07/02:00am WNW 7 10 - - - - 10 Partly cloudy - 16.0 1017.5 0.0
07/01:57am WNW 7 10 - - - - 10 Partly cloudy - 16.0 1017.5 0.0
07/01:35am WNW 7 10 - - - - 10 Partly cloudy - 16.1 1017.6 0.0
07/01:30am WNW 7 10 - - - - 10 Partly cloudy - 15.9 1017.6 0.0
07/01:00am WNW 8 11 - - - - 10 Partly cloudy - 16.0 1017.8 0.0
07/12:52am WNW 8 11 - - - - 10 Partly cloudy - 15.9 1017.9 0.0
07/12:30am WNW 7 8 - - - - 10 - - 15.3 1017.9 0.0
07/12:00am WNW 7 8 - - - - 10 - - 14.9 1018.1 0.0
 
Date/Time
EST
Wind Sea
Height
m
Swell Vis
km
Cloud Weather Temp
°C
Press
hPa
Rain since
9am
mm
Dir  Spd
kts
Gust
kts
Height
m
Period
s
Dir
06/11:30pm WNW 6 7 - - - - 10 - - 14.5 1018.4 0.0
06/11:00pm NW 5 6 - - - - 10 - - 13.5 1018.5 0.0
06/10:30pm WNW 4 4 - - - - 10 - - 13.8 1018.5 0.0
06/10:00pm WNW 5 6 - - - - 10 - - 13.6 1018.9 0.0
06/09:30pm W 3 4 - - - - 10 - - 13.8 1018.9 0.0
06/09:00pm W 4 5 - - - - 10 - - 14.0 1018.8 0.0

Other formats

Comma delimited format used in spreadsheet applications
http://www.bom.gov.au/fwo/IDN60701/IDN60701.94996.axf

JavaScript Object Notation format (JSON) in row-major order
http://www.bom.gov.au/fwo/IDN60701/IDN60701.94996.json

Data quality

Most of these data are generated automatically and are frequently updated. Quality checks on data are not normally performed. It is possible for incorrect values to appear. Refer to information at About Latest Weather Observations and please check the disclaimer before using these data.